Time;durP1;ratioP1;P1;durP2;ratioP2;P2;SDS_P1;SDS_P2;PMS_P1;PMS_P2;Temp;Humidity;BMP_temperature;BMP_pressure;BME280_temperature;BME280_humidity;BME280_pressure;Samples;Min_cycle;Max_cycle;Signal;HPM_P1;HPM_P2
2023/03/06 00:01:25;;;;;;;194.30;127.25;;;;;;;;;;5025987;28;20759;-79
2023/03/06 00:03:50;;;;;;;167.95;118.22;;;;;;;;;;5035358;28;20470;-79
2023/03/06 00:06:16;;;;;;;156.70;110.88;;;;;;;;;;5036203;28;20083;-79
2023/03/06 00:08:41;;;;;;;217.85;163.57;;;;;;;;;;5036097;28;20024;-78
2023/03/06 00:11:06;;;;;;;153.73;115.63;;;;;;;;;;5031954;28;20451;-78
2023/03/06 00:13:33;;;;;;;133.95;104.75;;;;;;;;;;5024748;28;20052;-78
2023/03/06 00:16:02;;;;;;;91.78;69.80;;;;;;;;;;5023457;28;20044;-78
2023/03/06 00:18:27;;;;;;;88.85;65.80;;;;;;;;;;5025110;28;20119;-78
2023/03/06 00:20:52;;;;;;;92.35;70.72;;;;;;;;;;5028595;28;20117;-79
2023/03/06 00:23:17;;;;;;;96.05;71.40;;;;;;;;;;5027240;28;20691;-78
2023/03/06 00:25:43;;;;;;;110.05;86.50;;;;;;;;;;5035820;28;21395;-78
2023/03/06 00:28:11;;;;;;;98.47;74.68;;;;;;;;;;5035194;28;20033;-79
2023/03/06 00:30:36;;;;;;;89.72;65.25;;;;;;;;;;5035921;28;20033;-78
2023/03/06 00:33:01;;;;;;;116.75;83.32;;;;;;;;;;5036102;28;20150;-79
2023/03/06 00:35:26;;;;;;;111.93;79.75;;;;;;;;;;5026392;28;20334;-77
2023/03/06 00:37:52;;;;;;;148.45;104.38;;;;;;;;;;5024404;28;20449;-79
2023/03/06 00:40:18;;;;;;;220.85;162.90;;;;;;;;;;5036362;28;20032;-80
2023/03/06 00:42:44;;;;;;;211.35;158.35;;;;;;;;;;5029457;28;20036;-79
2023/03/06 00:45:09;;;;;;;152.55;111.10;;;;;;;;;;5024468;28;20404;-78
2023/03/06 00:47:34;;;;;;;159.32;116.03;;;;;;;;;;5033656;28;20048;-79
2023/03/06 00:50:00;;;;;;;161.20;117.80;;;;;;;;;;5033920;28;20057;-79
2023/03/06 00:52:25;;;;;;;153.65;110.10;;;;;;;;;;5032717;28;20313;-79
2023/03/06 00:54:50;;;;;;;129.63;92.43;;;;;;;;;;5034934;28;20361;-78
2023/03/06 00:57:16;;;;;;;96.50;68.90;;;;;;;;;;5035976;28;20420;-79
2023/03/06 00:59:41;;;;;;;100.95;70.00;;;;;;;;;;5037340;28;20051;-79
2023/03/06 01:02:06;;;;;;;119.70;79.78;;;;;;;;;;5036844;28;20037;-77
2023/03/06 01:04:32;;;;;;;125.70;85.85;;;;;;;;;;5028195;28;20035;-79
2023/03/06 01:06:57;;;;;;;125.47;84.53;;;;;;;;;;5037240;28;20062;-79
2023/03/06 01:09:23;;;;;;;127.55;88.93;;;;;;;;;;5039487;28;20025;-79
2023/03/06 01:11:48;;;;;;;123.75;87.72;;;;;;;;;;5037755;28;20087;-78
2023/03/06 01:14:14;;;;;;;115.50;82.55;;;;;;;;;;5036254;28;20021;-80
2023/03/06 01:16:39;;;;;;;91.80;66.03;;;;;;;;;;5028393;28;20025;-81
2023/03/06 01:19:04;;;;;;;64.13;47.03;;;;;;;;;;5035122;28;20029;-79
2023/03/06 01:21:30;;;;;;;52.20;38.38;;;;;;;;;;5037707;28;20029;-79
2023/03/06 01:23:55;;;;;;;75.85;53.42;;;;;;;;;;5038474;28;20028;-80
2023/03/06 01:26:20;;;;;;;79.70;57.08;;;;;;;;;;5027439;28;20120;-78
2023/03/06 01:28:46;;;;;;;129.48;92.32;;;;;;;;;;5037816;28;20021;-81
2023/03/06 01:31:11;;;;;;;167.88;113.55;;;;;;;;;;5038723;28;20341;-79
2023/03/06 01:33:37;;;;;;;169.05;115.20;;;;;;;;;;5035369;28;20061;-79
2023/03/06 01:36:03;;;;;;;143.15;101.40;;;;;;;;;;5038071;28;20048;-79
2023/03/06 01:38:28;;;;;;;164.55;113.43;;;;;;;;;;5036526;28;20032;-78
2023/03/06 01:40:54;;;;;;;175.48;118.78;;;;;;;;;;5031492;28;20021;-77
2023/03/06 01:43:29;;;;;;;160.73;113.03;;;;;;;;;;5029704;28;20519;-79
2023/03/06 01:46:13;;;;;;;147.73;103.53;;;;;;;;;;5037905;28;20133;-79
2023/03/06 01:48:39;;;;;;;139.93;97.10;;;;;;;;;;5031215;28;20437;-79
2023/03/06 01:51:04;;;;;;;138.52;96.85;;;;;;;;;;5037531;28;20033;-78
2023/03/06 01:53:30;;;;;;;129.02;92.25;;;;;;;;;;5036953;28;20361;-78
2023/03/06 01:55:55;;;;;;;112.18;82.05;;;;;;;;;;5038125;28;20548;-78
2023/03/06 01:58:21;;;;;;;102.25;69.75;;;;;;;;;;5034711;28;20040;-78
2023/03/06 02:00:46;;;;;;;70.05;49.13;;;;;;;;;;5037683;28;20039;-78
2023/03/06 02:03:19;;;;;;;72.03;52.05;;;;;;;;;;5037484;28;20457;-79
2023/03/06 02:05:44;;;;;;;74.90;52.42;;;;;;;;;;5034131;28;20361;-78
2023/03/06 02:08:11;;;;;;;97.05;67.28;;;;;;;;;;5037273;28;20028;-77
2023/03/06 02:10:36;;;;;;;105.18;73.95;;;;;;;;;;5024263;28;20432;-77
2023/03/06 02:13:02;;;;;;;132.15;93.30;;;;;;;;;;5033875;28;20064;-78
2023/03/06 02:15:28;;;;;;;140.75;103.72;;;;;;;;;;5028830;28;20048;-78
2023/03/06 02:17:53;;;;;;;148.70;105.65;;;;;;;;;;5031821;28;20124;-77
2023/03/06 02:20:23;;;;;;;125.13;84.35;;;;;;;;;;5037625;28;20087;-79
2023/03/06 02:22:54;;;;;;;131.05;90.88;;;;;;;;;;5035583;28;20028;-79
2023/03/06 02:25:19;;;;;;;77.22;54.78;;;;;;;;;;5037374;28;20021;-80
2023/03/06 02:27:44;;;;;;;87.72;64.93;;;;;;;;;;5035297;28;20028;-79
2023/03/06 02:30:11;;;;;;;88.22;66.03;;;;;;;;;;5030124;28;20148;-76
2023/03/06 02:32:37;;;;;;;85.70;65.38;;;;;;;;;;5033222;28;20021;-78
2023/03/06 02:35:02;;;;;;;88.18;65.45;;;;;;;;;;5037021;28;20355;-78
2023/03/06 02:37:28;;;;;;;90.65;68.82;;;;;;;;;;5036128;28;20037;-79
2023/03/06 02:40:06;;;;;;;76.63;59.13;;;;;;;;;;5035063;28;20025;-78
2023/03/06 02:42:32;;;;;;;81.18;60.95;;;;;;;;;;5029520;28;20020;-78
2023/03/06 02:44:59;;;;;;;85.80;65.85;;;;;;;;;;5027211;28;20028;-78
2023/03/06 02:47:25;;;;;;;103.53;75.53;;;;;;;;;;5029597;28;20446;-79
2023/03/06 02:49:50;;;;;;;153.25;102.10;;;;;;;;;;5036965;28;20033;-79
2023/03/06 02:52:15;;;;;;;151.30;100.47;;;;;;;;;;5035254;28;20024;-79
2023/03/06 02:54:41;;;;;;;115.82;78.88;;;;;;;;;;5029969;28;20032;-79
2023/03/06 02:57:07;;;;;;;115.03;78.00;;;;;;;;;;5028008;28;20032;-78
2023/03/06 02:59:32;;;;;;;139.18;93.25;;;;;;;;;;5022918;28;20029;-78
2023/03/06 03:01:57;;;;;;;138.60;91.45;;;;;;;;;;5029417;28;20063;-79
2023/03/06 03:04:22;;;;;;;123.63;84.85;;;;;;;;;;5035672;28;20033;-79
2023/03/06 03:06:48;;;;;;;91.82;64.20;;;;;;;;;;5067718;28;20364;-78
2023/03/06 03:09:13;;;;;;;66.18;46.72;;;;;;;;;;5035575;28;20025;-79
2023/03/06 03:11:39;;;;;;;105.18;75.10;;;;;;;;;;5033927;28;20516;-78
2023/03/06 03:14:04;;;;;;;103.20;75.25;;;;;;;;;;5026712;28;20021;-79
2023/03/06 03:16:30;;;;;;;98.93;73.20;;;;;;;;;;5035920;28;20349;-78
2023/03/06 03:18:55;;;;;;;107.60;81.22;;;;;;;;;;5031987;28;20052;-79
2023/03/06 03:21:20;;;;;;;99.45;72.65;;;;;;;;;;5026365;28;20029;-77
2023/03/06 03:23:45;;;;;;;70.38;54.85;;;;;;;;;;5023475;28;20029;-79
2023/03/06 03:26:18;;;;;;;65.80;48.70;;;;;;;;;;5032634;28;20041;-78
2023/03/06 03:28:44;;;;;;;60.67;44.83;;;;;;;;;;5035285;28;20025;-79
2023/03/06 03:31:10;;;;;;;64.32;49.70;;;;;;;;;;5030554;28;20041;-79
2023/03/06 03:33:35;;;;;;;84.88;62.38;;;;;;;;;;5034897;28;20041;-79
2023/03/06 03:36:02;;;;;;;73.57;54.08;;;;;;;;;;5036137;28;20151;-78
2023/03/06 03:38:27;;;;;;;59.17;42.53;;;;;;;;;;5036038;28;20777;-79
2023/03/06 03:40:52;;;;;;;55.30;42.67;;;;;;;;;;5034869;28;20029;-77
2023/03/06 03:43:18;;;;;;;61.55;45.83;;;;;;;;;;5035794;28;20466;-78
2023/03/06 03:45:43;;;;;;;69.45;50.75;;;;;;;;;;5034136;28;20045;-79
2023/03/06 03:48:08;;;;;;;57.75;44.13;;;;;;;;;;5034543;28;20041;-78
2023/03/06 03:50:34;;;;;;;63.58;48.60;;;;;;;;;;5025481;28;20030;-78
2023/03/06 03:52:59;;;;;;;75.63;51.50;;;;;;;;;;5035808;28;20039;-78
2023/03/06 03:55:24;;;;;;;56.95;42.95;;;;;;;;;;5033057;28;20029;-79
2023/03/06 03:57:50;;;;;;;56.85;43.60;;;;;;;;;;5036653;28;20029;-80
2023/03/06 04:00:16;;;;;;;52.70;38.75;;;;;;;;;;5035861;28;20083;-79
2023/03/06 04:02:42;;;;;;;63.42;47.40;;;;;;;;;;5034254;28;20444;-79
2023/03/06 04:05:08;;;;;;;67.72;46.97;;;;;;;;;;5029621;28;20048;-78
2023/03/06 04:07:33;;;;;;;66.53;49.50;;;;;;;;;;5029306;28;20582;-79
2023/03/06 04:09:59;;;;;;;67.57;48.13;;;;;;;;;;5034063;28;20030;-79
2023/03/06 04:12:24;;;;;;;69.47;49.58;;;;;;;;;;5032434;28;20021;-79
2023/03/06 04:14:49;;;;;;;70.70;49.30;;;;;;;;;;5036628;28;20425;-79
2023/03/06 04:17:14;;;;;;;65.25;46.30;;;;;;;;;;5031937;28;20060;-79
2023/03/06 04:19:40;;;;;;;61.40;44.65;;;;;;;;;;5029601;28;20035;-80
2023/03/06 04:22:05;;;;;;;53.05;38.63;;;;;;;;;;5036033;28;20025;-80
2023/03/06 04:24:30;;;;;;;45.55;34.42;;;;;;;;;;5034530;28;20041;-78
2023/03/06 04:26:55;;;;;;;55.38;40.33;;;;;;;;;;5032542;28;20119;-77
2023/03/06 04:29:21;;;;;;;56.00;39.60;;;;;;;;;;5022332;28;20345;-77
2023/03/06 04:31:46;;;;;;;71.82;52.20;;;;;;;;;;5030974;28;20036;-80
2023/03/06 04:34:11;;;;;;;60.95;44.95;;;;;;;;;;5038670;28;20116;-80
2023/03/06 04:36:37;;;;;;;82.57;56.28;;;;;;;;;;5036144;28;20360;-80
2023/03/06 04:39:02;;;;;;;73.72;51.13;;;;;;;;;;5039465;28;20090;-81
2023/03/06 04:41:28;;;;;;;69.95;45.92;;;;;;;;;;5039386;28;20459;-82
2023/03/06 04:43:53;;;;;;;65.85;46.05;;;;;;;;;;5029635;28;20020;-80
2023/03/06 04:46:18;;;;;;;73.53;46.38;;;;;;;;;;5035611;28;20041;-79
2023/03/06 04:48:44;;;;;;;68.95;49.03;;;;;;;;;;5038038;28;20021;-79
2023/03/06 04:51:11;;;;;;;90.70;55.55;;;;;;;;;;5038741;28;20035;-79
2023/03/06 04:53:36;;;;;;;73.30;48.47;;;;;;;;;;5033818;28;20040;-79
2023/03/06 04:56:01;;;;;;;62.42;43.53;;;;;;;;;;5057750;28;20070;-78
2023/03/06 04:58:26;;;;;;;58.47;41.42;;;;;;;;;;5025396;28;20036;-79
2023/03/06 05:00:52;;;;;;;96.53;64.68;;;;;;;;;;5036400;28;20028;-79
2023/03/06 05:03:17;;;;;;;95.55;69.07;;;;;;;;;;5038514;28;20025;-79
2023/03/06 05:05:42;;;;;;;93.35;65.75;;;;;;;;;;5026576;28;20044;-78
2023/03/06 05:08:11;;;;;;;70.70;51.50;;;;;;;;;;5039514;28;20031;-78
2023/03/06 05:10:36;;;;;;;77.05;56.05;;;;;;;;;;5035927;28;20027;-79
2023/03/06 05:13:02;;;;;;;72.30;52.85;;;;;;;;;;5038005;28;20368;-79
2023/03/06 05:15:27;;;;;;;66.50;47.72;;;;;;;;;;5039712;28;20091;-79
2023/03/06 05:17:52;;;;;;;75.03;51.85;;;;;;;;;;5037212;28;20462;-78
2023/03/06 05:20:18;;;;;;;76.10;54.70;;;;;;;;;;5036449;28;20024;-78
2023/03/06 05:22:43;;;;;;;138.55;84.05;;;;;;;;;;5036397;28;20030;-78
2023/03/06 05:25:09;;;;;;;149.43;87.03;;;;;;;;;;5028665;28;20029;-77
2023/03/06 05:27:35;;;;;;;91.65;61.60;;;;;;;;;;5031786;28;20127;-75
2023/03/06 05:30:00;;;;;;;140.18;88.13;;;;;;;;;;5039141;28;20096;-77
2023/03/06 05:32:25;;;;;;;116.28;78.88;;;;;;;;;;5035781;28;20341;-78
2023/03/06 05:34:51;;;;;;;119.13;80.50;;;;;;;;;;5039236;28;20459;-75
2023/03/06 05:37:16;;;;;;;109.68;74.57;;;;;;;;;;5038212;28;20033;-77
2023/03/06 05:39:41;;;;;;;97.45;71.03;;;;;;;;;;5028261;28;20104;-76
2023/03/06 05:42:06;;;;;;;114.97;88.18;;;;;;;;;;5024550;28;20031;-76
2023/03/06 05:44:33;;;;;;;281.17;176.90;;;;;;;;;;5031856;28;20033;-78
2023/03/06 05:46:58;;;;;;;207.90;130.07;;;;;;;;;;5026041;28;20046;-79
2023/03/06 05:49:23;;;;;;;150.18;99.30;;;;;;;;;;5036352;28;20021;-78
2023/03/06 05:51:49;;;;;;;186.95;127.60;;;;;;;;;;5027757;28;20044;-78
2023/03/06 05:54:14;;;;;;;178.10;121.88;;;;;;;;;;5024088;28;20021;-78
2023/03/06 05:56:39;;;;;;;191.35;128.05;;;;;;;;;;5020809;28;20128;-78
2023/03/06 05:59:05;;;;;;;174.50;126.10;;;;;;;;;;5026668;28;20377;-78
2023/03/06 06:01:30;;;;;;;159.52;118.35;;;;;;;;;;5024787;28;20020;-77
2023/03/06 06:03:56;;;;;;;163.05;123.15;;;;;;;;;;5022560;28;20329;-75
2023/03/06 06:06:21;;;;;;;150.50;106.25;;;;;;;;;;5037431;28;20032;-76
2023/03/06 06:08:46;;;;;;;132.45;97.45;;;;;;;;;;5036718;28;20022;-77
2023/03/06 06:11:12;;;;;;;169.85;123.95;;;;;;;;;;5038522;28;20022;-77
2023/03/06 06:13:38;;;;;;;195.55;142.00;;;;;;;;;;5039099;28;20025;-80
2023/03/06 06:16:08;;;;;;;223.25;159.55;;;;;;;;;;5037697;28;20406;-78
2023/03/06 06:18:33;;;;;;;227.38;162.88;;;;;;;;;;5033592;28;20021;-76
2023/03/06 06:21:02;;;;;;;163.57;122.43;;;;;;;;;;5028927;28;20456;-77
2023/03/06 06:23:28;;;;;;;164.10;117.18;;;;;;;;;;5039983;28;20928;-79
2023/03/06 06:25:53;;;;;;;165.07;120.35;;;;;;;;;;5036613;28;20076;-77
2023/03/06 06:28:18;;;;;;;195.40;131.10;;;;;;;;;;5035376;28;20112;-76
2023/03/06 06:30:44;;;;;;;147.35;110.55;;;;;;;;;;5038264;28;20032;-77
2023/03/06 06:33:09;;;;;;;217.48;165.95;;;;;;;;;;5033284;28;20039;-77
2023/03/06 06:35:35;;;;;;;155.27;118.55;;;;;;;;;;5037433;28;20037;-81
2023/03/06 06:38:00;;;;;;;166.70;129.35;;;;;;;;;;5032553;28;20022;-78
2023/03/06 06:40:27;;;;;;;199.40;147.60;;;;;;;;;;5026337;28;20406;-80
2023/03/06 06:42:52;;;;;;;236.25;176.07;;;;;;;;;;5035137;28;20031;-79
2023/03/06 06:45:17;;;;;;;292.92;199.35;;;;;;;;;;5034005;28;20227;-79
2023/03/06 06:47:43;;;;;;;318.33;230.80;;;;;;;;;;5035981;28;20140;-79
2023/03/06 06:50:12;;;;;;;262.85;200.18;;;;;;;;;;5067822;28;20437;-79
2023/03/06 06:52:37;;;;;;;178.98;139.10;;;;;;;;;;5036986;28;20040;-79
2023/03/06 06:55:03;;;;;;;171.80;131.68;;;;;;;;;;5023749;28;20037;-80
2023/03/06 06:57:28;;;;;;;215.45;164.10;;;;;;;;;;5035300;28;20305;-79
2023/03/06 06:59:54;;;;;;;174.27;136.80;;;;;;;;;;5037373;28;20033;-79
2023/03/06 07:02:19;;;;;;;128.88;105.18;;;;;;;;;;5036306;28;20034;-79
2023/03/06 07:04:44;;;;;;;113.32;87.28;;;;;;;;;;5036093;28;20095;-79
2023/03/06 07:07:10;;;;;;;105.45;86.78;;;;;;;;;;5035846;28;20033;-78
2023/03/06 07:09:36;;;;;;;95.40;78.25;;;;;;;;;;5036037;28;20122;-77
2023/03/06 07:12:01;;;;;;;138.70;102.28;;;;;;;;;;5036684;28;20040;-79
2023/03/06 07:14:26;;;;;;;226.00;160.82;;;;;;;;;;5036374;28;20029;-79
2023/03/06 07:16:52;;;;;;;175.77;126.07;;;;;;;;;;5035973;28;20112;-77
2023/03/06 07:19:17;;;;;;;142.43;109.38;;;;;;;;;;5036815;28;20036;-77
2023/03/06 07:21:42;;;;;;;87.43;69.68;;;;;;;;;;5033376;28;20633;-79
2023/03/06 07:24:07;;;;;;;107.20;83.90;;;;;;;;;;5021146;28;20468;-79
2023/03/06 07:26:33;;;;;;;56.38;47.20;;;;;;;;;;5022701;28;20075;-78
2023/03/06 07:28:58;;;;;;;45.63;38.10;;;;;;;;;;5025813;28;20151;-75
2023/03/06 07:31:25;;;;;;;76.20;57.88;;;;;;;;;;5022283;28;20049;-76
2023/03/06 07:33:51;;;;;;;96.15;68.90;;;;;;;;;;5023949;28;20025;-79
2023/03/06 07:36:16;;;;;;;67.03;53.47;;;;;;;;;;5021805;28;20045;-78
2023/03/06 07:38:42;;;;;;;56.83;45.53;;;;;;;;;;5032632;28;20520;-77
2023/03/06 07:41:12;;;;;;;84.13;63.90;;;;;;;;;;5034888;28;20381;-77
2023/03/06 07:43:37;;;;;;;72.75;56.00;;;;;;;;;;5033713;28;20025;-79
2023/03/06 07:46:03;;;;;;;107.55;76.20;;;;;;;;;;5033254;28;20061;-79
2023/03/06 07:48:28;;;;;;;115.32;86.65;;;;;;;;;;5032365;28;20452;-79
2023/03/06 07:51:04;;;;;;;60.92;49.20;;;;;;;;;;5024942;28;20029;-78
2023/03/06 07:53:29;;;;;;;41.85;36.38;;;;;;;;;;5023108;28;20032;-78
2023/03/06 07:55:55;;;;;;;49.65;44.45;;;;;;;;;;5035169;28;20038;-78
2023/03/06 07:58:20;;;;;;;35.17;28.00;;;;;;;;;;5036735;28;20031;-79
2023/03/06 08:00:46;;;;;;;26.75;21.60;;;;;;;;;;5033575;28;20033;-78
2023/03/06 08:03:11;;;;;;;24.95;22.17;;;;;;;;;;5036537;28;20082;-78
2023/03/06 08:05:37;;;;;;;27.55;23.95;;;;;;;;;;5056387;28;20028;-79
2023/03/06 08:08:02;;;;;;;49.42;37.63;;;;;;;;;;5025379;28;20041;-80
2023/03/06 08:10:28;;;;;;;43.35;36.10;;;;;;;;;;5024380;28;20032;-78
2023/03/06 08:12:53;;;;;;;28.17;24.85;;;;;;;;;;5026253;28;20047;-80
2023/03/06 08:15:18;;;;;;;26.83;21.58;;;;;;;;;;5026583;28;20032;-79
2023/03/06 08:17:44;;;;;;;96.40;50.33;;;;;;;;;;5035864;28;20040;-79
2023/03/06 08:20:10;;;;;;;28.95;21.02;;;;;;;;;;5038546;28;20025;-79
2023/03/06 08:22:35;;;;;;;25.92;18.67;;;;;;;;;;5038400;28;20021;-79
2023/03/06 08:25:01;;;;;;;18.63;13.07;;;;;;;;;;5040378;28;20083;-78
2023/03/06 08:27:26;;;;;;;75.35;56.25;;;;;;;;;;5039464;28;20469;-78
2023/03/06 08:29:52;;;;;;;32.38;24.77;;;;;;;;;;5038170;28;20095;-79
2023/03/06 08:32:17;;;;;;;39.92;29.42;;;;;;;;;;5034945;28;20056;-78
2023/03/06 08:34:44;;;;;;;24.58;17.92;;;;;;;;;;5037902;28;20029;-79
2023/03/06 08:37:09;;;;;;;24.73;19.48;;;;;;;;;;5036229;28;20026;-79
2023/03/06 08:39:35;;;;;;;21.33;16.33;;;;;;;;;;5039992;28;20026;-77
2023/03/06 08:42:00;;;;;;;27.23;22.50;;;;;;;;;;5041669;28;20104;-77
2023/03/06 08:44:25;;;;;;;32.05;23.92;;;;;;;;;;5036372;28;20036;-78
2023/03/06 08:46:50;;;;;;;41.10;33.42;;;;;;;;;;5030795;28;20053;-79
2023/03/06 08:49:16;;;;;;;18.85;15.73;;;;;;;;;;5037931;28;20017;-79
2023/03/06 08:51:41;;;;;;;15.38;12.68;;;;;;;;;;5038929;28;20057;-78
2023/03/06 08:54:09;;;;;;;22.33;16.70;;;;;;;;;;5039840;28;20031;-79
2023/03/06 08:56:34;;;;;;;13.55;11.68;;;;;;;;;;5038201;28;20044;-78
2023/03/06 08:59:01;;;;;;;14.45;11.40;;;;;;;;;;5035847;28;20020;-78
2023/03/06 09:01:27;;;;;;;21.90;15.88;;;;;;;;;;5037874;28;20049;-79
2023/03/06 09:03:54;;;;;;;22.63;18.63;;;;;;;;;;5037231;28;20043;-78
2023/03/06 09:06:19;;;;;;;17.85;13.95;;;;;;;;;;5026023;28;20116;-79
2023/03/06 09:08:44;;;;;;;14.90;11.68;;;;;;;;;;5025559;28;20112;-78
2023/03/06 09:11:11;;;;;;;13.35;10.32;;;;;;;;;;5026180;28;20017;-79
2023/03/06 09:13:37;;;;;;;13.85;12.38;;;;;;;;;;5038359;28;20024;-78
2023/03/06 09:16:02;;;;;;;16.95;12.50;;;;;;;;;;5040599;28;20033;-79
2023/03/06 09:18:28;;;;;;;27.70;21.60;;;;;;;;;;5037013;28;20032;-79
2023/03/06 09:20:53;;;;;;;13.80;11.38;;;;;;;;;;5029291;28;20033;-79
2023/03/06 09:23:19;;;;;;;21.90;17.77;;;;;;;;;;5037261;28;20067;-81
2023/03/06 09:25:45;;;;;;;32.03;21.35;;;;;;;;;;5036171;28;20339;-80
2023/03/06 09:28:10;;;;;;;44.17;31.92;;;;;;;;;;5039069;28;20072;-78
2023/03/06 09:30:35;;;;;;;23.77;20.10;;;;;;;;;;5039828;28;20021;-78
2023/03/06 09:33:00;;;;;;;23.00;18.17;;;;;;;;;;5038192;28;20353;-78
2023/03/06 09:35:26;;;;;;;29.73;24.58;;;;;;;;;;5036708;28;20041;-78
2023/03/06 09:37:51;;;;;;;17.38;15.50;;;;;;;;;;5036482;28;20036;-78
2023/03/06 09:40:21;;;;;;;20.08;16.90;;;;;;;;;;5036884;28;20037;-78
2023/03/06 09:42:46;;;;;;;31.73;25.33;;;;;;;;;;5038579;28;20032;-79
2023/03/06 09:45:12;;;;;;;41.58;34.40;;;;;;;;;;5038699;28;20029;-78
2023/03/06 09:47:37;;;;;;;54.67;42.78;;;;;;;;;;5035534;28;20053;-76
2023/03/06 09:50:12;;;;;;;57.47;44.40;;;;;;;;;;5039819;28;20025;-77
2023/03/06 09:52:57;;;;;;;31.35;27.23;;;;;;;;;;5037908;28;20026;-77
2023/03/06 09:55:25;;;;;;;31.83;26.90;;;;;;;;;;5035039;28;20036;-77
2023/03/06 09:58:10;;;;;;;30.92;27.40;;;;;;;;;;5037980;28;20064;-77
2023/03/06 10:00:50;;;;;;;24.33;18.30;;;;;;;;;;5035441;28;20487;-77
2023/03/06 10:03:24;;;;;;;21.05;15.32;;;;;;;;;;5034663;28;20116;-76
2023/03/06 10:05:53;;;;;;;22.52;19.60;;;;;;;;;;5040260;28;20048;-77
2023/03/06 10:08:37;;;;;;;20.27;14.70;;;;;;;;;;5035324;28;20511;-77
2023/03/06 10:11:07;;;;;;;21.08;13.88;;;;;;;;;;5037477;28;20045;-77
2023/03/06 10:13:32;;;;;;;;;;;;;;;;;;5034931;28;20265;-78
2023/03/06 10:16:02;;;;;;;22.90;17.15;;;;;;;;;;5037226;28;19912;-78
2023/03/06 10:18:27;;;;;;;;;;;;;;;;;;5038419;28;20021;-77
2023/03/06 10:20:57;;;;;;;32.42;28.92;;;;;;;;;;5037816;28;19916;-78
2023/03/06 10:23:36;;;;;;;28.15;23.13;;;;;;;;;;5038344;28;20021;-78
2023/03/06 10:26:09;;;;;;;25.70;22.25;;;;;;;;;;5037890;28;20132;-77
2023/03/06 10:28:40;;;;;;;17.27;13.25;;;;;;;;;;5037571;28;20095;-78
2023/03/06 10:31:14;;;;;;;23.23;19.85;;;;;;;;;;5036686;28;20052;-77
2023/03/06 10:33:45;;;;;;;21.88;18.17;;;;;;;;;;5036080;28;20055;-77
2023/03/06 10:36:13;;;;;;;53.92;37.00;;;;;;;;;;5036463;28;20037;-78
2023/03/06 10:38:39;;;;;;;24.98;18.73;;;;;;;;;;5036805;28;20370;-77
2023/03/06 10:41:06;;;;;;;25.58;22.35;;;;;;;;;;5036889;28;20021;-76
2023/03/06 10:43:32;;;;;;;17.73;15.27;;;;;;;;;;5036253;28;20116;-77
2023/03/06 10:45:58;;;;;;;25.40;20.88;;;;;;;;;;5036753;28;20132;-78
2023/03/06 10:48:27;;;;;;;21.00;18.70;;;;;;;;;;5035891;28;20045;-78
2023/03/06 10:51:07;;;;;;;17.65;13.85;;;;;;;;;;5033262;28;20036;-79
2023/03/06 10:53:33;;;;;;;17.02;13.27;;;;;;;;;;5037114;28;20416;-79
2023/03/06 10:55:58;;;;;;;25.40;16.60;;;;;;;;;;5036972;28;20032;-78
2023/03/06 10:58:25;;;;;;;16.45;11.40;;;;;;;;;;5035436;28;20025;-78
2023/03/06 11:01:00;;;;;;;20.42;14.35;;;;;;;;;;5035464;28;20171;-78
2023/03/06 11:03:25;;;;;;;18.10;14.45;;;;;;;;;;5035316;28;20021;-78
2023/03/06 11:05:55;;;;;;;25.95;21.27;;;;;;;;;;5034972;28;20036;-77
2023/03/06 11:08:21;;;;;;;21.02;17.40;;;;;;;;;;5068519;28;20444;-76
2023/03/06 11:10:53;;;;;;;16.70;13.32;;;;;;;;;;5034866;28;20017;-77
2023/03/06 11:13:23;;;;;;;15.07;11.25;;;;;;;;;;5036121;28;20428;-78
2023/03/06 11:15:59;;;;;;;25.38;20.85;;;;;;;;;;5036612;28;20060;-78
2023/03/06 11:18:27;;;;;;;21.45;16.30;;;;;;;;;;5067127;28;20029;-78
2023/03/06 11:20:54;;;;;;;33.95;21.52;;;;;;;;;;5034143;28;20094;-78
2023/03/06 11:23:37;;;;;;;95.15;42.92;;;;;;;;;;5036723;28;20029;-78
2023/03/06 11:26:15;;;;;;;21.17;15.65;;;;;;;;;;5035389;28;20102;-78
2023/03/06 11:28:50;;;;;;;20.65;16.42;;;;;;;;;;5036398;28;20724;-78
2023/03/06 11:31:20;;;;;;;78.72;35.78;;;;;;;;;;5035491;28;20340;-78
2023/03/06 11:33:49;;;;;;;25.33;19.63;;;;;;;;;;5037140;28;20025;-78
2023/03/06 11:36:17;;;;;;;15.80;12.90;;;;;;;;;;5035875;28;20045;-79
2023/03/06 11:38:45;;;;;;;28.48;22.15;;;;;;;;;;5033751;28;20033;-78
2023/03/06 11:41:37;;;;;;;22.42;16.70;;;;;;;;;;5034478;28;20359;-77
2023/03/06 11:44:12;;;;;;;14.95;12.73;;;;;;;;;;5033986;28;20102;-77
2023/03/06 11:46:40;;;;;;;30.35;22.20;;;;;;;;;;5034305;28;20150;-77
2023/03/06 11:49:05;;;;;;;16.63;11.85;;;;;;;;;;5035660;28;20135;-78
2023/03/06 11:51:34;;;;;;;14.13;9.98;;;;;;;;;;5033835;28;20112;-77
2023/03/06 11:54:00;;;;;;;16.35;11.25;;;;;;;;;;5033442;28;20029;-77
2023/03/06 11:56:40;;;;;;;16.88;14.15;;;;;;;;;;5034290;28;20349;-78
2023/03/06 11:59:30;;;;;;;22.10;14.82;;;;;;;;;;5033273;28;20017;-77
2023/03/06 12:01:59;;;;;;;22.08;19.05;;;;;;;;;;5034560;28;20044;-77
2023/03/06 12:04:36;;;;;;;18.33;15.57;;;;;;;;;;5035389;28;20036;-77
2023/03/06 12:07:07;;;;;;;27.35;21.27;;;;;;;;;;5032618;28;20107;-78
2023/03/06 12:09:39;;;;;;;18.67;16.50;;;;;;;;;;5031220;28;20037;-77
2023/03/06 12:12:19;;;;;;;26.88;21.35;;;;;;;;;;5033199;28;20068;-78
2023/03/06 12:14:58;;;;;;;31.25;20.75;;;;;;;;;;5033000;28;20519;-78
2023/03/06 12:17:23;;;;;;;;;;;;;;;;;;5019308;28;20116;-78
2023/03/06 12:20:04;;;;;;;22.65;19.13;;;;;;;;;;5033108;28;20742;-77
2023/03/06 12:22:32;;;;;;;24.77;22.23;;;;;;;;;;5035973;28;20035;-78
2023/03/06 12:25:04;;;;;;;16.30;13.10;;;;;;;;;;5034921;28;20452;-76
2023/03/06 12:27:39;;;;;;;11.35;9.57;;;;;;;;;;5035049;28;20167;-77
2023/03/06 12:30:10;;;;;;;10.98;8.80;;;;;;;;;;5037682;28;20035;-78
2023/03/06 12:32:38;;;;;;;14.60;10.52;;;;;;;;;;5035329;28;20056;-77
2023/03/06 12:35:04;;;;;;;14.52;10.70;;;;;;;;;;5036078;28;20033;-78
2023/03/06 12:37:29;;;;;;;14.77;11.65;;;;;;;;;;5035083;28;20037;-77
2023/03/06 12:40:21;;;;;;;12.93;10.53;;;;;;;;;;5035594;28;20017;-75
2023/03/06 12:42:46;;;;;;;20.85;11.82;;;;;;;;;;5030864;28;20277;-77
2023/03/06 12:45:17;;;;;;;14.43;11.25;;;;;;;;;;5036192;28;20086;-77
2023/03/06 12:47:47;;;;;;;24.52;19.30;;;;;;;;;;5034978;28;20041;-77
2023/03/06 12:50:21;;;;;;;11.13;9.93;;;;;;;;;;5034189;28;20469;-77
2023/03/06 12:52:47;;;;;;;17.20;12.38;;;;;;;;;;5033874;28;20032;-77
2023/03/06 12:55:15;;;;;;;14.20;9.10;;;;;;;;;;5037179;28;21387;-76
2023/03/06 12:57:40;;;;;;;13.70;9.52;;;;;;;;;;5038765;28;20414;-77
2023/03/06 13:00:07;;;;;;;11.02;9.50;;;;;;;;;;5035652;28;20132;-76
2023/03/06 13:02:32;;;;;;;12.45;11.15;;;;;;;;;;5039091;28;20025;-77
2023/03/06 13:04:58;;;;;;;12.07;8.60;;;;;;;;;;5037769;28;20094;-77
2023/03/06 13:07:47;;;;;;;14.52;12.57;;;;;;;;;;5039375;28;20033;-77
2023/03/06 13:10:12;;;;;;;12.93;8.10;;;;;;;;;;5037219;28;20029;-78
2023/03/06 13:12:54;;;;;;;16.47;10.90;;;;;;;;;;5038176;28;20025;-78
2023/03/06 13:15:38;;;;;;;19.15;11.10;;;;;;;;;;5038659;28;20290;-76
2023/03/06 13:18:22;;;;;;;11.88;9.88;;;;;;;;;;5039245;28;20094;-77
2023/03/06 13:20:48;;;;;;;23.30;16.05;;;;;;;;;;5036713;28;20029;-77
2023/03/06 13:23:28;;;;;;;58.30;39.00;;;;;;;;;;5038118;28;20029;-77
2023/03/06 13:25:54;;;;;;;143.85;104.47;;;;;;;;;;5037953;28;20352;-76
2023/03/06 13:28:23;;;;;;;34.95;25.95;;;;;;;;;;5039067;28;20111;-77
2023/03/06 13:30:49;;;;;;;47.00;38.45;;;;;;;;;;5039016;28;20416;-78
2023/03/06 13:33:28;;;;;;;37.80;27.50;;;;;;;;;;5040302;28;20029;-76
2023/03/06 13:35:53;;;;;;;;;;;;;;;;;;5038244;28;20037;-75
2023/03/06 13:38:28;;;;;;;20.47;15.87;;;;;;;;;;5039538;28;20545;-76
2023/03/06 13:41:13;;;;;;;78.28;60.38;;;;;;;;;;5037757;28;20468;-77
2023/03/06 13:43:41;;;;;;;15.20;12.63;;;;;;;;;;5036483;28;20039;-78
2023/03/06 13:46:23;;;;;;;25.85;23.20;;;;;;;;;;5037500;28;20148;-77
2023/03/06 13:49:01;;;;;;;16.10;14.05;;;;;;;;;;5036121;28;20026;-77
2023/03/06 13:51:29;;;;;;;45.67;32.92;;;;;;;;;;5035898;28;20120;-80
2023/03/06 13:54:10;;;;;;;22.05;18.17;;;;;;;;;;5034597;28;20025;-78
2023/03/06 13:56:55;;;;;;;16.27;12.48;;;;;;;;;;5038396;28;20452;-78
2023/03/06 13:59:39;;;;;;;21.45;14.40;;;;;;;;;;5035810;28;20039;-78
2023/03/06 14:02:17;;;;;;;19.58;15.93;;;;;;;;;;5036297;28;20025;-80
2023/03/06 14:05:02;;;;;;;19.42;14.50;;;;;;;;;;5031959;28;20029;-77
2023/03/06 14:07:31;;;;;;;31.00;19.88;;;;;;;;;;5036120;28;20448;-77
2023/03/06 14:10:11;;;;;;;28.17;20.92;;;;;;;;;;5033575;28;20021;-76
2023/03/06 14:12:39;;;;;;;36.33;26.60;;;;;;;;;;5020950;28;20104;-78
2023/03/06 14:15:11;;;;;;;35.90;29.95;;;;;;;;;;5023670;28;20238;-76
2023/03/06 14:17:38;;;;;;;17.90;12.82;;;;;;;;;;5031960;28;20087;-78